Wicklow, Ireland
Current Conditions -  °F | °C
As of 4:00 PM on Monday 22 Dec 2014 (Local Time) from EIME Reporting Station
Light Rain Light Rain  
Wind Chill: 52°   Ceiling: 1200
Heat Index: 52°   Visibility: 2.9mi
Dew Point: 50°   Wind: 28mph
Humidity: 94%   Direction: 230°SW
Pressure: 29.8"   Gusts: 40mph
Location:  52.99°N, 6.05°W
Report Text: EIME 221600Z 23024G35KT 4700 -RADZ FEW008 SCT010 BKN012 11/10 Q1009
Loading
Personal Weather Stations






























Interactive Weather Map New forecast layout! Learn more

10-Day Weather Forecast

Advertisements
Track Severe Weather on mobile